sensor_id;sensor_type;location;lat;lon;timestamp;pressure;altitude;pressure_sealevel;temperature;humidity
11314;BME280;5712;48.858;9.206;2022-09-27T00:01:42;96408.31;;;10.21;100.00
11314;BME280;5712;48.858;9.206;2022-09-27T00:04:10;96410.00;;;10.13;100.00
11314;BME280;5712;48.858;9.206;2022-09-27T00:06:37;96397.22;;;10.18;100.00
11314;BME280;5712;48.858;9.206;2022-09-27T00:09:03;96388.63;;;10.16;100.00
11314;BME280;5712;48.858;9.206;2022-09-27T00:11:32;96398.88;;;10.19;100.00
11314;BME280;5712;48.858;9.206;2022-09-27T00:14:00;96396.41;;;10.17;100.00
11314;BME280;5712;48.858;9.206;2022-09-27T00:16:30;96398.19;;;10.17;100.00
11314;BME280;5712;48.858;9.206;2022-09-27T00:18:59;96393.75;;;10.17;100.00
11314;BME280;5712;48.858;9.206;2022-09-27T00:21:27;96386.66;;;10.18;100.00
11314;BME280;5712;48.858;9.206;2022-09-27T00:23:54;96393.31;;;10.22;100.00
11314;BME280;5712;48.858;9.206;2022-09-27T00:26:21;96390.38;;;10.25;100.00
11314;BME280;5712;48.858;9.206;2022-09-27T00:28:48;96387.72;;;10.25;100.00
11314;BME280;5712;48.858;9.206;2022-09-27T00:31:20;96393.53;;;10.28;100.00
11314;BME280;5712;48.858;9.206;2022-09-27T00:33:48;96386.06;;;10.24;100.00
11314;BME280;5712;48.858;9.206;2022-09-27T00:36:17;96386.38;;;10.21;100.00
11314;BME280;5712;48.858;9.206;2022-09-27T00:38:44;96378.59;;;10.19;100.00
11314;BME280;5712;48.858;9.206;2022-09-27T00:41:13;96377.75;;;10.19;100.00
11314;BME280;5712;48.858;9.206;2022-09-27T00:43:47;96372.47;;;10.19;100.00
11314;BME280;5712;48.858;9.206;2022-09-27T00:46:20;96376.75;;;10.20;100.00
11314;BME280;5712;48.858;9.206;2022-09-27T00:48:54;96369.00;;;10.18;100.00
11314;BME280;5712;48.858;9.206;2022-09-27T00:51:26;96379.41;;;10.20;100.00
11314;BME280;5712;48.858;9.206;2022-09-27T00:53:54;96376.94;;;10.18;100.00
11314;BME280;5712;48.858;9.206;2022-09-27T00:56:26;96387.06;;;10.23;100.00
11314;BME280;5712;48.858;9.206;2022-09-27T00:58:57;96383.28;;;10.25;100.00
11314;BME280;5712;48.858;9.206;2022-09-27T01:01:25;96377.47;;;10.22;100.00
11314;BME280;5712;48.858;9.206;2022-09-27T01:03:58;96372.97;;;10.32;100.00
11314;BME280;5712;48.858;9.206;2022-09-27T01:06:28;96378.25;;;10.32;100.00
11314;BME280;5712;48.858;9.206;2022-09-27T01:08:55;96371.31;;;10.31;100.00
11314;BME280;5712;48.858;9.206;2022-09-27T01:11:34;96373.25;;;10.29;100.00
11314;BME280;5712;48.858;9.206;2022-09-27T01:14:23;96370.22;;;10.24;100.00
11314;BME280;5712;48.858;9.206;2022-09-27T01:17:00;96370.91;;;10.26;100.00
11314;BME280;5712;48.858;9.206;2022-09-27T01:19:49;96372.59;;;10.27;100.00
11314;BME280;5712;48.858;9.206;2022-09-27T01:22:28;96374.25;;;10.28;100.00
11314;BME280;5712;48.858;9.206;2022-09-27T01:25:18;96370.47;;;10.30;100.00
11314;BME280;5712;48.858;9.206;2022-09-27T01:28:12;96366.31;;;10.28;100.00
11314;BME280;5712;48.858;9.206;2022-09-27T01:30:51;96367.19;;;10.19;100.00
11314;BME280;5712;48.858;9.206;2022-09-27T01:33:37;96370.28;;;10.14;100.00
11314;BME280;5712;48.858;9.206;2022-09-27T01:36:17;96370.94;;;10.16;100.00
11314;BME280;5712;48.858;9.206;2022-09-27T01:38:55;96359.97;;;10.21;100.00
11314;BME280;5712;48.858;9.206;2022-09-27T01:41:38;96360.03;;;10.11;100.00
11314;BME280;5712;48.858;9.206;2022-09-27T01:44:16;96357.28;;;9.94;100.00
11314;BME280;5712;48.858;9.206;2022-09-27T01:46:52;96356.78;;;9.81;100.00
11314;BME280;5712;48.858;9.206;2022-09-27T01:49:23;96357.16;;;9.86;100.00
11314;BME280;5712;48.858;9.206;2022-09-27T01:51:56;96356.00;;;9.98;100.00
11314;BME280;5712;48.858;9.206;2022-09-27T01:54:30;96355.34;;;10.05;100.00
11314;BME280;5712;48.858;9.206;2022-09-27T01:57:00;96364.72;;;10.17;100.00
11314;BME280;5712;48.858;9.206;2022-09-27T01:59:32;96362.75;;;10.19;100.00
11314;BME280;5712;48.858;9.206;2022-09-27T02:02:03;96366.91;;;10.22;100.00
11314;BME280;5712;48.858;9.206;2022-09-27T02:04:34;96361.91;;;10.19;100.00
11314;BME280;5712;48.858;9.206;2022-09-27T02:07:07;96371.88;;;10.25;100.00
11314;BME280;5712;48.858;9.206;2022-09-27T02:09:39;96368.25;;;10.26;100.00
11314;BME280;5712;48.858;9.206;2022-09-27T02:12:10;96367.59;;;10.24;100.00
11314;BME280;5712;48.858;9.206;2022-09-27T02:14:42;96368.56;;;10.23;100.00
11314;BME280;5712;48.858;9.206;2022-09-27T02:17:20;96368.56;;;10.23;100.00
11314;BME280;5712;48.858;9.206;2022-09-27T02:19:53;96379.13;;;10.23;100.00
11314;BME280;5712;48.858;9.206;2022-09-27T02:22:33;96381.47;;;10.26;100.00
11314;BME280;5712;48.858;9.206;2022-09-27T02:25:06;96382.34;;;10.17;100.00
11314;BME280;5712;48.858;9.206;2022-09-27T02:27:41;96391.41;;;10.14;100.00
11314;BME280;5712;48.858;9.206;2022-09-27T02:30:13;96380.56;;;10.08;100.00
11314;BME280;5712;48.858;9.206;2022-09-27T02:32:41;96390.59;;;10.04;100.00
11314;BME280;5712;48.858;9.206;2022-09-27T02:35:13;96396.94;;;10.02;100.00
11314;BME280;5712;48.858;9.206;2022-09-27T02:37:41;96402.81;;;9.96;100.00
11314;BME280;5712;48.858;9.206;2022-09-27T02:40:09;96398.38;;;9.96;100.00
11314;BME280;5712;48.858;9.206;2022-09-27T02:42:36;96393.94;;;9.97;100.00
11314;BME280;5712;48.858;9.206;2022-09-27T02:45:04;96391.13;;;9.98;100.00
11314;BME280;5712;48.858;9.206;2022-09-27T02:47:48;96392.13;;;9.97;100.00
11314;BME280;5712;48.858;9.206;2022-09-27T02:50:39;96392.81;;;9.99;100.00
11314;BME280;5712;48.858;9.206;2022-09-27T02:53:14;96397.25;;;9.99;100.00
11314;BME280;5712;48.858;9.206;2022-09-27T02:55:50;96396.19;;;9.92;100.00
11314;BME280;5712;48.858;9.206;2022-09-27T02:58:32;96403.56;;;9.79;100.00
11314;BME280;5712;48.858;9.206;2022-09-27T03:01:07;96412.31;;;9.70;100.00
11314;BME280;5712;48.858;9.206;2022-09-27T03:03:44;96417.75;;;9.59;100.00
11314;BME280;5712;48.858;9.206;2022-09-27T03:06:16;96414.88;;;9.52;100.00
11314;BME280;5712;48.858;9.206;2022-09-27T03:08:44;96419.06;;;9.36;100.00
11314;BME280;5712;48.858;9.206;2022-09-27T03:11:11;96421.81;;;9.34;100.00
11314;BME280;5712;48.858;9.206;2022-09-27T03:13:38;96420.97;;;9.34;100.00
11314;BME280;5712;48.858;9.206;2022-09-27T03:16:05;96426.25;;;9.34;100.00
11314;BME280;5712;48.858;9.206;2022-09-27T03:18:32;96429.06;;;9.32;100.00
11314;BME280;5712;48.858;9.206;2022-09-27T03:21:00;96438.75;;;9.32;100.00
11314;BME280;5712;48.858;9.206;2022-09-27T03:23:27;96442.63;;;9.28;100.00
11314;BME280;5712;48.858;9.206;2022-09-27T03:25:54;96447.63;;;9.31;100.00
11314;BME280;5712;48.858;9.206;2022-09-27T03:28:21;96442.06;;;9.34;100.00
11314;BME280;5712;48.858;9.206;2022-09-27T03:30:49;96447.09;;;9.37;100.00
11314;BME280;5712;48.858;9.206;2022-09-27T03:33:16;96448.06;;;9.36;100.00
11314;BME280;5712;48.858;9.206;2022-09-27T03:35:42;96450.28;;;9.31;100.00
11314;BME280;5712;48.858;9.206;2022-09-27T03:38:11;96444.56;;;9.35;100.00
11314;BME280;5712;48.858;9.206;2022-09-27T03:40:38;96449.41;;;9.40;100.00
11314;BME280;5712;48.858;9.206;2022-09-27T03:43:04;96452.78;;;9.42;100.00
11314;BME280;5712;48.858;9.206;2022-09-27T03:45:31;96454.44;;;9.43;100.00
11314;BME280;5712;48.858;9.206;2022-09-27T03:47:58;96446.09;;;9.47;100.00
11314;BME280;5712;48.858;9.206;2022-09-27T03:50:25;96445.66;;;9.52;100.00
11314;BME280;5712;48.858;9.206;2022-09-27T03:52:51;96451.09;;;9.50;100.00
11314;BME280;5712;48.858;9.206;2022-09-27T03:55:20;96452.78;;;9.42;100.00
11314;BME280;5712;48.858;9.206;2022-09-27T03:57:47;96449.16;;;9.43;100.00
11314;BME280;5712;48.858;9.206;2022-09-27T04:00:14;96457.06;;;9.43;100.00
11314;BME280;5712;48.858;9.206;2022-09-27T04:02:41;96449.97;;;9.53;100.00
11314;BME280;5712;48.858;9.206;2022-09-27T04:05:08;96450.13;;;9.61;100.00
11314;BME280;5712;48.858;9.206;2022-09-27T04:07:35;96454.41;;;9.62;100.00
11314;BME280;5712;48.858;9.206;2022-09-27T04:10:03;96458.44;;;9.66;100.00
11314;BME280;5712;48.858;9.206;2022-09-27T04:12:31;96459.38;;;9.65;100.00
11314;BME280;5712;48.858;9.206;2022-09-27T04:14:58;96458.16;;;9.69;100.00
11314;BME280;5712;48.858;9.206;2022-09-27T04:17:25;96463.28;;;9.70;100.00
11314;BME280;5712;48.858;9.206;2022-09-27T04:19:52;96463.16;;;9.72;100.00
11314;BME280;5712;48.858;9.206;2022-09-27T04:22:18;96460.09;;;9.67;100.00
11314;BME280;5712;48.858;9.206;2022-09-27T04:24:45;96451.78;;;9.62;100.00
11314;BME280;5712;48.858;9.206;2022-09-27T04:27:12;96466.75;;;9.71;100.00
11314;BME280;5712;48.858;9.206;2022-09-27T04:29:40;96468.44;;;9.72;100.00
11314;BME280;5712;48.858;9.206;2022-09-27T04:32:10;96469.53;;;9.79;100.00
11314;BME280;5712;48.858;9.206;2022-09-27T04:34:36;96469.94;;;9.84;100.00
11314;BME280;5712;48.858;9.206;2022-09-27T04:37:21;96467.00;;;9.87;100.00
11314;BME280;5712;48.858;9.206;2022-09-27T04:39:48;96467.84;;;9.87;100.00
11314;BME280;5712;48.858;9.206;2022-09-27T04:42:15;96471.59;;;9.85;100.00
11314;BME280;5712;48.858;9.206;2022-09-27T04:44:43;96469.78;;;9.85;100.00
11314;BME280;5712;48.858;9.206;2022-09-27T04:47:12;96480.88;;;9.89;100.00
11314;BME280;5712;48.858;9.206;2022-09-27T04:49:39;96480.63;;;9.92;100.00
11314;BME280;5712;48.858;9.206;2022-09-27T04:52:05;96493.13;;;9.90;100.00
11314;BME280;5712;48.858;9.206;2022-09-27T04:54:32;96489.34;;;9.92;100.00
11314;BME280;5712;48.858;9.206;2022-09-27T04:56:59;96494.50;;;9.84;100.00
11314;BME280;5712;48.858;9.206;2022-09-27T04:59:25;96489.78;;;9.78;100.00
11314;BME280;5712;48.858;9.206;2022-09-27T05:01:54;96491.47;;;9.70;100.00
11314;BME280;5712;48.858;9.206;2022-09-27T05:04:23;96489.38;;;9.64;100.00
11314;BME280;5712;48.858;9.206;2022-09-27T05:06:50;96499.81;;;9.65;100.00
11314;BME280;5712;48.858;9.206;2022-09-27T05:09:17;96505.06;;;9.56;100.00
11314;BME280;5712;48.858;9.206;2022-09-27T05:11:44;96506.47;;;9.60;100.00
11314;BME280;5712;48.858;9.206;2022-09-27T05:14:11;96506.19;;;9.63;100.00
11314;BME280;5712;48.858;9.206;2022-09-27T05:16:38;96508.94;;;9.71;100.00
11314;BME280;5712;48.858;9.206;2022-09-27T05:19:06;96523.53;;;9.75;100.00
11314;BME280;5712;48.858;9.206;2022-09-27T05:21:33;96528.81;;;9.75;100.00
11314;BME280;5712;48.858;9.206;2022-09-27T05:24:00;96527.97;;;9.74;100.00
11314;BME280;5712;48.858;9.206;2022-09-27T05:26:27;96533.09;;;9.76;100.00
11314;BME280;5712;48.858;9.206;2022-09-27T05:28:53;96535.06;;;9.74;100.00
11314;BME280;5712;48.858;9.206;2022-09-27T05:31:20;96548.13;;;9.66;100.00
11314;BME280;5712;48.858;9.206;2022-09-27T05:33:47;96548.13;;;9.66;100.00
11314;BME280;5712;48.858;9.206;2022-09-27T05:36:15;96555.19;;;9.65;100.00
11314;BME280;5712;48.858;9.206;2022-09-27T05:38:42;96559.22;;;9.60;100.00
11314;BME280;5712;48.858;9.206;2022-09-27T05:41:09;96564.22;;;9.63;100.00
11314;BME280;5712;48.858;9.206;2022-09-27T05:43:35;96563.66;;;9.59;100.00
11314;BME280;5712;48.858;9.206;2022-09-27T05:46:02;96574.19;;;9.59;100.00
11314;BME280;5712;48.858;9.206;2022-09-27T05:48:30;96572.00;;;9.55;100.00
11314;BME280;5712;48.858;9.206;2022-09-27T05:50:57;96573.53;;;9.57;100.00
11314;BME280;5712;48.858;9.206;2022-09-27T05:53:25;96575.31;;;9.57;100.00
11314;BME280;5712;48.858;9.206;2022-09-27T05:55:53;96573.66;;;9.56;100.00
11314;BME280;5712;48.858;9.206;2022-09-27T05:58:20;96573.53;;;9.57;100.00
11314;BME280;5712;48.858;9.206;2022-09-27T06:00:46;96579.34;;;9.61;100.00
11314;BME280;5712;48.858;9.206;2022-09-27T06:03:13;96595.00;;;9.53;100.00
11314;BME280;5712;48.858;9.206;2022-09-27T06:05:40;96586.53;;;9.40;100.00
11314;BME280;5712;48.858;9.206;2022-09-27T06:08:08;96595.41;;;9.39;100.00
11314;BME280;5712;48.858;9.206;2022-09-27T06:10:38;96606.69;;;9.50;100.00
11314;BME280;5712;48.858;9.206;2022-09-27T06:13:07;96603.91;;;9.61;100.00
11314;BME280;5712;48.858;9.206;2022-09-27T06:15:35;96600.59;;;9.69;100.00
11314;BME280;5712;48.858;9.206;2022-09-27T06:18:04;96612.94;;;9.68;100.00
11314;BME280;5712;48.858;9.206;2022-09-27T06:20:31;96609.75;;;9.74;100.00
11314;BME280;5712;48.858;9.206;2022-09-27T06:23:03;96613.91;;;9.77;100.00
11314;BME280;5712;48.858;9.206;2022-09-27T06:25:32;96619.75;;;9.80;100.00
11314;BME280;5712;48.858;9.206;2022-09-27T06:28:00;96619.78;;;9.90;100.00
11314;BME280;5712;48.858;9.206;2022-09-27T06:30:27;96616.41;;;9.97;100.00
11314;BME280;5712;48.858;9.206;2022-09-27T06:32:55;96624.47;;;9.96;100.00
11314;BME280;5712;48.858;9.206;2022-09-27T06:35:23;96615.78;;;10.05;100.00
11314;BME280;5712;48.858;9.206;2022-09-27T06:37:50;96613.34;;;10.02;100.00
11314;BME280;5712;48.858;9.206;2022-09-27T06:40:17;96626.84;;;9.99;100.00
11314;BME280;5712;48.858;9.206;2022-09-27T06:42:44;96622.41;;;9.90;100.00
11314;BME280;5712;48.858;9.206;2022-09-27T06:45:13;96620.34;;;10.03;100.00
11314;BME280;5712;48.858;9.206;2022-09-27T06:47:39;96624.22;;;10.18;100.00
11314;BME280;5712;48.858;9.206;2022-09-27T06:50:07;96632.03;;;10.10;100.00
11314;BME280;5712;48.858;9.206;2022-09-27T06:52:34;96630.75;;;10.04;100.00
11314;BME280;5712;48.858;9.206;2022-09-27T06:55:02;96639.50;;;9.95;100.00
11314;BME280;5712;48.858;9.206;2022-09-27T06:57:29;96638.94;;;9.82;100.00
11314;BME280;5712;48.858;9.206;2022-09-27T07:00:15;96645.28;;;9.61;100.00
11314;BME280;5712;48.858;9.206;2022-09-27T07:02:51;96654.44;;;9.57;100.00
11314;BME280;5712;48.858;9.206;2022-09-27T07:05:18;96654.97;;;9.51;100.00
11314;BME280;5712;48.858;9.206;2022-09-27T07:07:45;96660.91;;;9.43;100.00
11314;BME280;5712;48.858;9.206;2022-09-27T07:10:13;96671.63;;;9.51;100.00
11314;BME280;5712;48.858;9.206;2022-09-27T07:12:42;96665.25;;;9.54;100.00
11314;BME280;5712;48.858;9.206;2022-09-27T07:15:13;96662.19;;;9.49;100.00
11314;BME280;5712;48.858;9.206;2022-09-27T07:17:41;96666.06;;;9.45;100.00
11314;BME280;5712;48.858;9.206;2022-09-27T07:20:08;96667.72;;;9.46;100.00
11314;BME280;5712;48.858;9.206;2022-09-27T07:22:39;96674.13;;;9.62;100.00
11314;BME280;5712;48.858;9.206;2022-09-27T07:25:07;96675.53;;;9.66;100.00
11314;BME280;5712;48.858;9.206;2022-09-27T07:27:34;96676.41;;;9.67;100.00
11314;BME280;5712;48.858;9.206;2022-09-27T07:30:00;96684.16;;;9.68;100.00
11314;BME280;5712;48.858;9.206;2022-09-27T07:32:27;96685.00;;;9.69;100.00
11314;BME280;5712;48.858;9.206;2022-09-27T07:34:55;96690.41;;;9.67;100.00
11314;BME280;5712;48.858;9.206;2022-09-27T07:37:22;96693.59;;;9.71;100.00
11314;BME280;5712;48.858;9.206;2022-09-27T07:39:49;96699.16;;;9.68;100.00
11314;BME280;5712;48.858;9.206;2022-09-27T07:42:16;96695.28;;;9.72;100.00
11314;BME280;5712;48.858;9.206;2022-09-27T07:44:42;96700.25;;;9.65;100.00
11314;BME280;5712;48.858;9.206;2022-09-27T07:47:09;96706.63;;;9.63;100.00
11314;BME280;5712;48.858;9.206;2022-09-27T07:49:36;96704.00;;;9.63;100.00
11314;BME280;5712;48.858;9.206;2022-09-27T07:52:04;96705.16;;;9.79;100.00
11314;BME280;5712;48.858;9.206;2022-09-27T07:54:31;96707.25;;;9.95;100.00
11314;BME280;5712;48.858;9.206;2022-09-27T07:56:58;96711.47;;;10.07;100.00
11314;BME280;5712;48.858;9.206;2022-09-27T07:59:24;96710.78;;;10.05;100.00
11314;BME280;5712;48.858;9.206;2022-09-27T08:01:52;96716.06;;;10.14;100.00
11314;BME280;5712;48.858;9.206;2022-09-27T08:04:20;96707.59;;;10.30;100.00
11314;BME280;5712;48.858;9.206;2022-09-27T08:06:46;96715.25;;;10.23;100.00
11314;BME280;5712;48.858;9.206;2022-09-27T08:09:15;96713.44;;;10.24;100.00
11314;BME280;5712;48.858;9.206;2022-09-27T08:11:41;96718.72;;;10.43;100.00
11314;BME280;5712;48.858;9.206;2022-09-27T08:14:10;96723.31;;;10.69;100.00
11314;BME280;5712;48.858;9.206;2022-09-27T08:16:37;96718.69;;;11.00;100.00
11314;BME280;5712;48.858;9.206;2022-09-27T08:19:04;96721.13;;;11.11;100.00
11314;BME280;5712;48.858;9.206;2022-09-27T08:21:31;96722.63;;;11.23;100.00
11314;BME280;5712;48.858;9.206;2022-09-27T08:23:58;96745.34;;;11.16;100.00
11314;BME280;5712;48.858;9.206;2022-09-27T08:26:27;96741.03;;;11.15;100.00
11314;BME280;5712;48.858;9.206;2022-09-27T08:28:54;96746.44;;;11.13;100.00
11314;BME280;5712;48.858;9.206;2022-09-27T08:31:21;96749.06;;;11.23;100.00
11314;BME280;5712;48.858;9.206;2022-09-27T08:33:50;96749.78;;;11.25;100.00
11314;BME280;5712;48.858;9.206;2022-09-27T08:36:17;96740.56;;;11.29;100.00
11314;BME280;5712;48.858;9.206;2022-09-27T08:38:47;96760.19;;;11.26;100.00
11314;BME280;5712;48.858;9.206;2022-09-27T08:41:23;96756.44;;;11.29;100.00
11314;BME280;5712;48.858;9.206;2022-09-27T08:44:13;96759.22;;;11.37;100.00
11314;BME280;5712;48.858;9.206;2022-09-27T08:46:50;96767.44;;;11.80;100.00
11314;BME280;5712;48.858;9.206;2022-09-27T08:49:22;96757.94;;;12.04;100.00
11314;BME280;5712;48.858;9.206;2022-09-27T08:51:52;96755.56;;;12.11;96.08
11314;BME280;5712;48.858;9.206;2022-09-27T08:54:21;96754.19;;;12.07;95.09
11314;BME280;5712;48.858;9.206;2022-09-27T08:56:51;96763.19;;;12.14;95.70
11314;BME280;5712;48.858;9.206;2022-09-27T08:59:23;96768.00;;;12.01;94.86
11314;BME280;5712;48.858;9.206;2022-09-27T09:01:53;96760.22;;;11.72;95.44
11314;BME280;5712;48.858;9.206;2022-09-27T09:04:23;96775.25;;;11.72;96.37
11314;BME280;5712;48.858;9.206;2022-09-27T09:07:01;96766.75;;;11.68;96.69
11314;BME280;5712;48.858;9.206;2022-09-27T09:09:39;96768.31;;;11.61;95.93
11314;BME280;5712;48.858;9.206;2022-09-27T09:12:20;96764.25;;;11.57;97.74
11314;BME280;5712;48.858;9.206;2022-09-27T09:15:21;96760.00;;;11.47;97.46
11314;BME280;5712;48.858;9.206;2022-09-27T09:18:05;96768.91;;;11.46;97.56
11314;BME280;5712;48.858;9.206;2022-09-27T09:20:54;96768.91;;;11.46;100.00
11314;BME280;5712;48.858;9.206;2022-09-27T09:23:56;96776.19;;;11.34;100.00
11314;BME280;5712;48.858;9.206;2022-09-27T09:26:31;96767.06;;;11.10;98.72
11314;BME280;5712;48.858;9.206;2022-09-27T09:29:11;96765.38;;;11.09;99.11
11314;BME280;5712;48.858;9.206;2022-09-27T09:31:47;96769.53;;;11.21;99.44
11314;BME280;5712;48.858;9.206;2022-09-27T09:34:19;96775.94;;;11.28;99.78
11314;BME280;5712;48.858;9.206;2022-09-27T09:36:52;96777.44;;;11.30;100.00
11314;BME280;5712;48.858;9.206;2022-09-27T09:39:23;96767.53;;;11.51;98.12
11314;BME280;5712;48.858;9.206;2022-09-27T09:42:02;96769.56;;;11.67;96.90
11314;BME280;5712;48.858;9.206;2022-09-27T09:44:40;96766.53;;;11.89;99.18
11314;BME280;5712;48.858;9.206;2022-09-27T09:47:14;96768.19;;;12.17;92.35
11314;BME280;5712;48.858;9.206;2022-09-27T09:49:46;96761.88;;;12.45;87.21
11314;BME280;5712;48.858;9.206;2022-09-27T09:52:16;96758.72;;;12.59;86.67
11314;BME280;5712;48.858;9.206;2022-09-27T09:54:46;96755.16;;;12.50;86.80
11314;BME280;5712;48.858;9.206;2022-09-27T09:57:16;96752.03;;;12.55;86.72
11314;BME280;5712;48.858;9.206;2022-09-27T09:59:48;96754.75;;;12.45;84.40
11314;BME280;5712;48.858;9.206;2022-09-27T10:02:25;96739.38;;;12.49;85.00
11314;BME280;5712;48.858;9.206;2022-09-27T10:04:54;96734.34;;;12.55;85.71
11314;BME280;5712;48.858;9.206;2022-09-27T10:07:22;96742.88;;;12.67;81.51
11314;BME280;5712;48.858;9.206;2022-09-27T10:09:50;96736.03;;;12.82;81.38
11314;BME280;5712;48.858;9.206;2022-09-27T10:12:17;96728.38;;;12.96;79.71
11314;BME280;5712;48.858;9.206;2022-09-27T10:14:45;96730.59;;;13.01;78.41
11314;BME280;5712;48.858;9.206;2022-09-27T10:17:17;96736.00;;;13.17;77.78
11314;BME280;5712;48.858;9.206;2022-09-27T10:19:46;96744.94;;;13.16;76.69
11314;BME280;5712;48.858;9.206;2022-09-27T10:22:20;96744.19;;;13.23;78.06
11314;BME280;5712;48.858;9.206;2022-09-27T10:24:56;96741.72;;;13.30;77.97
11314;BME280;5712;48.858;9.206;2022-09-27T10:27:24;96739.44;;;13.35;76.91
11314;BME280;5712;48.858;9.206;2022-09-27T10:29:58;96742.75;;;13.37;76.07
11314;BME280;5712;48.858;9.206;2022-09-27T10:32:27;96739.66;;;13.41;77.03
11314;BME280;5712;48.858;9.206;2022-09-27T10:35:21;96741.00;;;13.45;80.37
11314;BME280;5712;48.858;9.206;2022-09-27T10:38:15;96741.09;;;13.36;78.86
11314;BME280;5712;48.858;9.206;2022-09-27T10:40:46;96737.38;;;13.21;78.07
11314;BME280;5712;48.858;9.206;2022-09-27T10:43:23;96737.38;;;13.03;77.82
11314;BME280;5712;48.858;9.206;2022-09-27T10:45:59;96738.91;;;13.06;80.10
11314;BME280;5712;48.858;9.206;2022-09-27T10:48:26;96743.59;;;13.12;82.15
11314;BME280;5712;48.858;9.206;2022-09-27T10:50:58;96742.03;;;13.01;82.39
11314;BME280;5712;48.858;9.206;2022-09-27T10:53:26;96742.53;;;13.05;83.68
11314;BME280;5712;48.858;9.206;2022-09-27T10:55:55;96741.41;;;12.90;79.75
11314;BME280;5712;48.858;9.206;2022-09-27T10:58:25;96734.75;;;12.86;81.90
11314;BME280;5712;48.858;9.206;2022-09-27T11:00:54;96728.16;;;12.90;80.14
11314;BME280;5712;48.858;9.206;2022-09-27T11:03:22;96724.75;;;12.97;82.37
11314;BME280;5712;48.858;9.206;2022-09-27T11:05:50;96721.03;;;13.08;81.69
11314;BME280;5712;48.858;9.206;2022-09-27T11:08:29;96719.38;;;13.07;84.01
11314;BME280;5712;48.858;9.206;2022-09-27T11:11:02;96719.16;;;13.00;86.71
11314;BME280;5712;48.858;9.206;2022-09-27T11:13:31;96713.09;;;12.73;88.73
11314;BME280;5712;48.858;9.206;2022-09-27T11:16:17;96714.34;;;12.43;90.58
11314;BME280;5712;48.858;9.206;2022-09-27T11:18:53;96715.63;;;12.22;91.99
11314;BME280;5712;48.858;9.206;2022-09-27T11:21:32;96719.66;;;11.99;93.91
11314;BME280;5712;48.858;9.206;2022-09-27T11:24:19;96707.81;;;11.76;95.80
11314;BME280;5712;48.858;9.206;2022-09-27T11:26:54;96704.16;;;11.50;89.36
11314;BME280;5712;48.858;9.206;2022-09-27T11:29:32;96701.38;;;11.42;90.61
11314;BME280;5712;48.858;9.206;2022-09-27T11:32:12;96700.13;;;11.46;90.19
11314;BME280;5712;48.858;9.206;2022-09-27T11:35:00;96696.59;;;11.64;88.41
11314;BME280;5712;48.858;9.206;2022-09-27T11:37:37;96687.63;;;11.75;89.71
11314;BME280;5712;48.858;9.206;2022-09-27T11:40:16;96682.41;;;11.83;87.68
11314;BME280;5712;48.858;9.206;2022-09-27T11:43:08;96690.75;;;11.88;87.20
11314;BME280;5712;48.858;9.206;2022-09-27T11:45:50;96697.44;;;11.92;88.57
11314;BME280;5712;48.858;9.206;2022-09-27T11:48:27;96725.31;;;11.86;87.30
11314;BME280;5712;48.858;9.206;2022-09-27T11:54:04;96752.59;;;11.14;98.59
11314;BME280;5712;48.858;9.206;2022-09-27T11:56:47;96771.84;;;10.59;100.00
11314;BME280;5712;48.858;9.206;2022-09-27T12:02:24;96779.56;;;9.43;100.00
11314;BME280;5712;48.858;9.206;2022-09-27T12:05:04;96774.53;;;9.31;100.00
11314;BME280;5712;48.858;9.206;2022-09-27T12:07:43;96770.03;;;9.22;100.00
11314;BME280;5712;48.858;9.206;2022-09-27T12:10:13;96759.41;;;9.33;100.00
11314;BME280;5712;48.858;9.206;2022-09-27T12:12:45;96758.78;;;9.50;100.00
11314;BME280;5712;48.858;9.206;2022-09-27T12:15:18;96744.72;;;9.79;100.00
11314;BME280;5712;48.858;9.206;2022-09-27T12:17:48;96743.66;;;10.01;100.00
11314;BME280;5712;48.858;9.206;2022-09-27T12:20:19;96745.31;;;10.02;100.00
11314;BME280;5712;48.858;9.206;2022-09-27T12:22:53;96747.66;;;9.86;100.00
11314;BME280;5712;48.858;9.206;2022-09-27T12:25:24;96744.19;;;9.95;100.00
11314;BME280;5712;48.858;9.206;2022-09-27T12:27:57;96739.78;;;9.95;100.00
11314;BME280;5712;48.858;9.206;2022-09-27T12:30:27;96744.50;;;9.92;100.00
11314;BME280;5712;48.858;9.206;2022-09-27T12:33:01;96750.47;;;9.94;100.00
11314;BME280;5712;48.858;9.206;2022-09-27T12:35:34;96749.06;;;9.90;100.00
11314;BME280;5712;48.858;9.206;2022-09-27T12:38:11;96748.47;;;9.86;100.00
11314;BME280;5712;48.858;9.206;2022-09-27T12:40:41;96749.19;;;9.79;100.00
11314;BME280;5712;48.858;9.206;2022-09-27T12:43:16;96746.69;;;9.87;100.00
11314;BME280;5712;48.858;9.206;2022-09-27T12:45:58;96742.25;;;9.87;100.00
11314;BME280;5712;48.858;9.206;2022-09-27T12:48:35;96738.66;;;9.88;100.00
11314;BME280;5712;48.858;9.206;2022-09-27T12:51:08;96736.69;;;9.90;100.00
11314;BME280;5712;48.858;9.206;2022-09-27T12:53:47;96731.44;;;10.00;100.00
11314;BME280;5712;48.858;9.206;2022-09-27T12:56:28;96717.88;;;10.14;100.00
11314;BME280;5712;48.858;9.206;2022-09-27T12:59:33;96721.22;;;10.35;100.00
11314;BME280;5712;48.858;9.206;2022-09-27T13:02:19;96720.41;;;10.72;100.00
11314;BME280;5712;48.858;9.206;2022-09-27T13:05:03;96718.38;;;11.03;100.00
11314;BME280;5712;48.858;9.206;2022-09-27T13:07:44;96713.25;;;10.92;100.00
11314;BME280;5712;48.858;9.206;2022-09-27T13:13:16;96714.84;;;10.56;100.00
11314;BME280;5712;48.858;9.206;2022-09-27T13:15:46;96714.84;;;10.47;100.00
11314;BME280;5712;48.858;9.206;2022-09-27T13:18:29;96729.28;;;10.24;100.00
11314;BME280;5712;48.858;9.206;2022-09-27T13:20:56;96729.56;;;10.11;100.00
11314;BME280;5712;48.858;9.206;2022-09-27T13:23:56;96723.38;;;9.92;100.00
11314;BME280;5712;48.858;9.206;2022-09-27T13:26:47;96735.00;;;9.80;100.00
11314;BME280;5712;48.858;9.206;2022-09-27T13:29:30;96736.78;;;9.70;100.00
11314;BME280;5712;48.858;9.206;2022-09-27T13:32:18;96731.34;;;9.62;100.00
11314;BME280;5712;48.858;9.206;2022-09-27T13:34:47;96708.84;;;9.58;100.00
11314;BME280;5712;48.858;9.206;2022-09-27T13:37:46;96706.38;;;9.66;100.00
11314;BME280;5712;48.858;9.206;2022-09-27T13:40:29;96710.28;;;9.81;100.00
11314;BME280;5712;48.858;9.206;2022-09-27T13:43:35;96706.25;;;9.77;100.00